createdAt,value
2023-10-18T00:00:59.853Z,6.90
2023-10-18T00:03:27.351Z,6.90
2023-10-18T00:05:56.160Z,6.90
2023-10-18T00:13:28.457Z,6.90
2023-10-18T00:16:01.837Z,7.00
2023-10-18T00:18:30.302Z,7.00
2023-10-18T00:21:00.891Z,7.00
2023-10-18T00:23:28.461Z,6.90
2023-10-18T00:25:55.710Z,6.90
2023-10-18T00:28:23.452Z,7.00
2023-10-18T00:33:45.149Z,6.90
2023-10-18T00:36:12.580Z,6.90
2023-10-18T00:38:40.319Z,6.90
2023-10-18T00:41:10.442Z,7.00
2023-10-18T00:43:38.135Z,6.90
2023-10-18T00:46:09.781Z,6.80
2023-10-18T00:48:37.752Z,6.90
2023-10-18T00:56:12.717Z,6.90
2023-10-18T00:58:40.656Z,6.90
2023-10-18T01:01:10.856Z,7.00
2023-10-18T01:03:39.269Z,7.10
2023-10-18T01:06:09.426Z,7.20
2023-10-18T01:08:38.010Z,7.30
2023-10-18T01:11:07.456Z,7.40
2023-10-18T01:16:15.617Z,7.40
2023-10-18T01:18:44.604Z,7.30
2023-10-18T01:21:14.781Z,7.40
2023-10-18T01:23:43.829Z,7.20
2023-10-18T01:26:14.138Z,7.10
2023-10-18T01:28:41.849Z,6.90
2023-10-18T01:31:09.933Z,7.00
2023-10-18T01:38:44.288Z,7.00
2023-10-18T01:41:17.383Z,7.00
2023-10-18T01:43:45.926Z,6.90
2023-10-18T01:46:14.952Z,6.80
2023-10-18T01:48:42.624Z,6.70
2023-10-18T01:51:11.087Z,6.50
2023-10-18T01:53:39.587Z,6.40
2023-10-18T02:00:15.548Z,6.50
2023-10-18T02:02:42.805Z,6.50
2023-10-18T02:05:15.821Z,6.50
2023-10-18T02:07:43.097Z,6.30
2023-10-18T02:10:11.776Z,6.40
2023-10-18T02:12:40.374Z,6.40
2023-10-18T02:15:11.120Z,6.30
2023-10-18T02:25:04.032Z,6.30
2023-10-18T02:27:31.435Z,6.50
2023-10-18T02:29:58.297Z,6.50
2023-10-18T02:32:32.910Z,6.60
2023-10-18T02:35:00.241Z,6.70
2023-10-18T02:37:27.495Z,6.60
2023-10-18T02:40:08.259Z,6.50
2023-10-18T02:45:23.788Z,6.40
2023-10-18T02:47:51.973Z,6.40
2023-10-18T02:50:19.186Z,6.30
2023-10-18T02:52:47.459Z,6.30
2023-10-18T02:55:18.073Z,6.30
2023-10-18T02:57:47.161Z,6.20
2023-10-18T03:00:15.506Z,6.20
2023-10-18T03:05:41.812Z,6.10
2023-10-18T03:08:10.680Z,6.10
2023-10-18T03:10:45.164Z,6.10
2023-10-18T03:13:13.872Z,6.10
2023-10-18T03:16:01.527Z,6.20
2023-10-18T03:18:29.109Z,6.20
2023-10-18T03:20:58.374Z,6.10
2023-10-18T03:27:08.850Z,6.00
2023-10-18T03:29:38.517Z,5.90
2023-10-18T03:32:07.637Z,5.80
2023-10-18T03:34:38.453Z,5.80
2023-10-18T03:37:07.164Z,5.70
2023-10-18T03:39:34.303Z,5.70
2023-10-18T03:42:03.548Z,5.80
2023-10-18T03:49:37.604Z,5.70
2023-10-18T03:52:17.300Z,5.60
2023-10-18T03:54:45.006Z,5.60
2023-10-18T03:57:16.937Z,5.70
2023-10-18T03:59:45.981Z,5.60
2023-10-18T04:02:16.936Z,5.40
2023-10-18T04:04:48.532Z,5.50
2023-10-18T04:12:20.892Z,5.40
2023-10-18T04:14:52.996Z,5.30
2023-10-18T04:17:32.393Z,5.30
2023-10-18T04:20:01.731Z,5.30
2023-10-18T04:22:29.150Z,5.40
2023-10-18T04:24:56.132Z,5.30
2023-10-18T04:27:24.345Z,5.30
2023-10-18T04:35:00.595Z,5.50
2023-10-18T04:37:27.529Z,5.30
2023-10-18T04:39:56.319Z,5.40
2023-10-18T04:42:24.938Z,5.40
2023-10-18T04:44:54.118Z,5.40
2023-10-18T04:47:32.495Z,5.50
2023-10-18T04:50:02.693Z,5.60
2023-10-18T04:59:47.115Z,5.50
2023-10-18T05:02:26.675Z,5.40
2023-10-18T05:04:55.630Z,5.50
2023-10-18T05:07:39.118Z,5.60
2023-10-18T05:10:14.925Z,5.60
2023-10-18T05:12:48.017Z,5.60
2023-10-18T05:15:22.348Z,5.60
2023-10-18T05:23:06.232Z,5.50
2023-10-18T05:25:35.233Z,5.50
2023-10-18T05:28:09.851Z,5.70
2023-10-18T05:30:56.659Z,5.70
2023-10-18T05:33:42.178Z,5.70
2023-10-18T05:36:12.308Z,5.70
2023-10-18T05:38:51.590Z,5.80
2023-10-18T05:46:21.171Z,5.70
2023-10-18T05:48:48.728Z,5.70
2023-10-18T05:51:37.357Z,5.60
2023-10-18T05:54:06.364Z,5.60
2023-10-18T05:56:33.940Z,5.60
2023-10-18T05:59:16.984Z,5.70
2023-10-18T06:01:45.356Z,5.70
2023-10-18T06:09:27.765Z,5.60
2023-10-18T06:11:56.481Z,5.70
2023-10-18T06:14:26.132Z,5.70
2023-10-18T06:17:06.703Z,5.60
2023-10-18T06:19:36.886Z,5.70
2023-10-18T06:22:16.174Z,5.70
2023-10-18T06:24:49.750Z,5.70
2023-10-18T06:32:25.824Z,5.70
2023-10-18T06:34:57.268Z,5.90
2023-10-18T06:37:25.973Z,5.90
2023-10-18T06:39:59.071Z,5.90
2023-10-18T06:42:27.763Z,5.90
2023-10-18T06:44:55.759Z,5.90
2023-10-18T06:47:31.707Z,5.90
2023-10-18T06:53:07.228Z,5.90
2023-10-18T06:55:42.777Z,6.00
2023-10-18T06:58:14.977Z,6.00
2023-10-18T07:00:47.984Z,6.10
2023-10-18T07:03:17.967Z,6.10
2023-10-18T07:05:50.316Z,6.10
2023-10-18T07:08:21.291Z,6.10
2023-10-18T07:13:35.858Z,6.20
2023-10-18T07:16:06.419Z,6.40
2023-10-18T07:18:34.476Z,6.50
2023-10-18T07:21:06.551Z,6.50
2023-10-18T07:23:36.918Z,6.50
2023-10-18T07:26:09.196Z,6.40
2023-10-18T07:28:37.704Z,6.40
2023-10-18T07:36:10.344Z,6.50
2023-10-18T07:38:47.726Z,6.50
2023-10-18T07:41:16.119Z,6.60
2023-10-18T07:43:45.412Z,6.60
2023-10-18T07:46:17.720Z,6.70
2023-10-18T07:48:48.753Z,6.80
2023-10-18T07:51:26.800Z,6.90
2023-10-18T08:01:47.797Z,7.10
2023-10-18T08:04:18.394Z,7.20
2023-10-18T08:06:46.100Z,7.40
2023-10-18T08:09:17.598Z,7.40
2023-10-18T08:11:46.951Z,7.50
2023-10-18T08:14:17.729Z,7.60
2023-10-18T08:16:53.572Z,7.60
2023-10-18T08:24:27.342Z,7.90
2023-10-18T08:27:00.951Z,8.20
2023-10-18T08:29:29.465Z,8.40
2023-10-18T08:31:58.620Z,8.40
2023-10-18T08:34:31.225Z,8.40
2023-10-18T08:37:08.804Z,8.40
2023-10-18T08:39:55.727Z,8.40
2023-10-18T08:49:07.081Z,8.90
2023-10-18T08:51:48.805Z,9.10
2023-10-18T08:54:23.018Z,9.30
2023-10-18T08:57:02.751Z,9.30
2023-10-18T08:59:44.913Z,9.30
2023-10-18T09:02:13.900Z,9.30
2023-10-18T09:04:46.514Z,9.40
2023-10-18T09:12:16.012Z,9.60
2023-10-18T09:14:51.607Z,9.80
2023-10-18T09:17:25.678Z,10.10
2023-10-18T09:19:58.618Z,10.20
2023-10-18T09:22:26.132Z,10.40
2023-10-18T09:24:55.592Z,10.40
2023-10-18T09:27:24.291Z,10.20
2023-10-18T09:33:33.668Z,10.40
2023-10-18T09:36:02.870Z,10.70
2023-10-18T09:38:41.104Z,10.90
2023-10-18T09:41:12.043Z,10.90
2023-10-18T09:43:39.582Z,10.90
2023-10-18T09:46:08.851Z,11.10
2023-10-18T09:48:42.026Z,11.20
2023-10-18T09:56:15.602Z,10.90
2023-10-18T09:58:46.198Z,10.60
2023-10-18T10:01:26.819Z,10.50
2023-10-18T10:03:56.831Z,10.50
2023-10-18T10:06:24.806Z,10.90
2023-10-18T10:08:56.168Z,10.90
2023-10-18T10:11:30.532Z,10.90
2023-10-18T10:19:11.826Z,11.10
2023-10-18T10:21:40.946Z,11.10
2023-10-18T10:24:27.023Z,11.20
2023-10-18T10:27:13.919Z,11.40
2023-10-18T10:29:42.216Z,11.50
2023-10-18T10:32:11.088Z,11.60
2023-10-18T10:34:42.372Z,11.70
2023-10-18T10:45:03.952Z,11.70
2023-10-18T10:47:43.566Z,11.80
2023-10-18T10:50:12.477Z,11.80
2023-10-18T10:52:45.437Z,12.00
2023-10-18T10:55:23.500Z,12.10
2023-10-18T10:57:51.957Z,12.20
2023-10-18T11:00:39.676Z,12.30
2023-10-18T11:09:04.269Z,12.50
2023-10-18T11:11:34.049Z,12.70
2023-10-18T11:14:09.236Z,13.00
2023-10-18T11:16:37.266Z,13.40
2023-10-18T11:19:04.525Z,13.40
2023-10-18T11:21:34.027Z,13.40
2023-10-18T11:24:03.613Z,13.60
2023-10-18T11:31:38.996Z,13.90
2023-10-18T11:34:06.444Z,14.10
2023-10-18T11:36:34.306Z,14.30
2023-10-18T11:39:20.387Z,14.30
2023-10-18T11:41:54.312Z,14.40
2023-10-18T11:44:29.229Z,14.20
2023-10-18T11:47:06.203Z,14.40
2023-10-18T11:54:44.313Z,14.40
2023-10-18T11:57:30.872Z,14.10
2023-10-18T12:00:20.109Z,14.10
2023-10-18T12:02:47.795Z,14.30
2023-10-18T12:05:18.956Z,14.40
2023-10-18T12:07:55.071Z,14.80
2023-10-18T12:18:22.739Z,15.00
2023-10-18T12:20:52.135Z,14.90
2023-10-18T12:23:19.818Z,14.90
2023-10-18T12:25:49.266Z,14.80
2023-10-18T12:28:19.120Z,14.70
2023-10-18T12:30:54.391Z,14.60
2023-10-18T12:33:26.042Z,14.80
2023-10-18T12:41:07.089Z,14.40
2023-10-18T12:43:39.856Z,14.30
2023-10-18T12:46:07.816Z,14.30
2023-10-18T12:48:37.341Z,14.30
2023-10-18T12:51:10.784Z,14.30
2023-10-18T12:53:43.553Z,14.30
2023-10-18T12:56:31.423Z,14.40
2023-10-18T13:01:49.602Z,14.50
2023-10-18T13:04:19.898Z,14.80
2023-10-18T13:06:48.518Z,14.60
2023-10-18T13:09:21.016Z,14.40
2023-10-18T13:12:04.709Z,14.40
2023-10-18T13:14:34.484Z,14.40
2023-10-18T13:17:06.912Z,14.20
2023-10-18T13:26:21.754Z,14.50
2023-10-18T13:29:02.098Z,14.50
2023-10-18T13:31:32.239Z,14.60
2023-10-18T13:34:01.965Z,14.60
2023-10-18T13:36:29.338Z,14.30
2023-10-18T13:38:56.859Z,14.30
2023-10-18T13:41:25.348Z,14.40
2023-10-18T13:48:57.613Z,14.30
2023-10-18T13:51:24.505Z,14.40
2023-10-18T13:53:53.738Z,14.50
2023-10-18T13:56:22.287Z,14.50
2023-10-18T13:58:49.797Z,14.50
2023-10-18T14:01:19.527Z,14.60
2023-10-18T14:03:50.826Z,14.50
2023-10-18T14:06:25.782Z,14.40
2023-10-18T14:14:08.055Z,14.40
2023-10-18T14:16:35.948Z,14.30
2023-10-18T14:19:04.400Z,14.30
2023-10-18T14:21:32.103Z,14.30
2023-10-18T14:24:00.924Z,14.00
2023-10-18T14:26:28.370Z,14.00
2023-10-18T14:28:56.913Z,14.00
2023-10-18T14:35:21.997Z,13.90
2023-10-18T14:37:49.106Z,13.70
2023-10-18T14:40:17.804Z,13.70
2023-10-18T14:42:45.737Z,13.70
2023-10-18T14:45:15.268Z,13.60
2023-10-18T14:47:42.600Z,13.60
2023-10-18T14:50:11.121Z,13.60
2023-10-18T14:55:53.925Z,13.80
2023-10-18T14:58:24.380Z,13.90
2023-10-18T15:00:51.767Z,13.90
2023-10-18T15:03:23.058Z,13.80
2023-10-18T15:05:51.107Z,13.70
2023-10-18T15:08:18.546Z,13.60
2023-10-18T15:10:50.796Z,13.60
2023-10-18T15:13:19.169Z,13.60
2023-10-18T15:20:50.617Z,13.40
2023-10-18T15:23:20.098Z,13.20
2023-10-18T15:25:47.746Z,13.30
2023-10-18T15:28:14.644Z,13.50
2023-10-18T15:30:42.898Z,13.50
2023-10-18T15:33:10.723Z,13.40
2023-10-18T15:35:38.473Z,13.40
2023-10-18T15:40:48.237Z,13.30
2023-10-18T15:43:16.456Z,13.20
2023-10-18T15:45:50.514Z,13.20
2023-10-18T15:48:17.520Z,13.20
2023-10-18T15:50:44.934Z,13.30
2023-10-18T15:53:12.313Z,13.30
2023-10-18T15:55:39.756Z,13.20
2023-10-18T16:02:00.394Z,13.10
2023-10-18T16:04:27.786Z,12.90
2023-10-18T16:06:56.823Z,13.00
2023-10-18T16:09:28.115Z,12.90
2023-10-18T16:11:59.381Z,12.70
2023-10-18T16:14:29.351Z,12.60
2023-10-18T16:17:03.819Z,12.50
2023-10-18T16:28:29.546Z,12.40
2023-10-18T16:30:57.285Z,12.10
2023-10-18T16:33:31.418Z,12.00
2023-10-18T16:36:02.311Z,12.00
2023-10-18T16:38:30.872Z,12.00
2023-10-18T16:41:03.113Z,12.00
2023-10-18T16:43:32.734Z,12.00
2023-10-18T16:54:01.447Z,11.70
2023-10-18T16:56:31.326Z,11.60
2023-10-18T16:59:05.992Z,11.60
2023-10-18T17:01:34.260Z,11.50
2023-10-18T17:04:01.696Z,11.40
2023-10-18T17:06:29.635Z,11.40
2023-10-18T17:08:58.058Z,11.40
2023-10-18T17:15:11.215Z,11.50
2023-10-18T17:17:38.688Z,11.50
2023-10-18T17:20:09.416Z,11.50
2023-10-18T17:22:39.050Z,11.50
2023-10-18T17:25:08.826Z,11.50
2023-10-18T17:27:37.485Z,11.50
2023-10-18T17:30:06.160Z,11.50
2023-10-18T17:35:42.719Z,11.30
2023-10-18T17:38:13.785Z,11.50
2023-10-18T17:40:41.675Z,11.40
2023-10-18T17:43:10.986Z,11.50
2023-10-18T17:45:38.399Z,11.40
2023-10-18T17:48:10.049Z,11.50
2023-10-18T17:50:37.549Z,11.60
2023-10-18T17:58:35.229Z,11.60
2023-10-18T18:01:12.731Z,11.60
2023-10-18T18:03:44.665Z,11.50
2023-10-18T18:06:19.306Z,11.50
2023-10-18T18:09:03.165Z,11.50
2023-10-18T18:11:49.713Z,11.50
2023-10-18T18:14:47.499Z,11.60
2023-10-18T18:17:21.658Z,11.60
2023-10-18T18:23:18.097Z,11.60
2023-10-18T18:25:46.971Z,11.50
2023-10-18T18:28:18.849Z,11.60
2023-10-18T18:30:46.055Z,11.60
2023-10-18T18:33:13.804Z,11.60
2023-10-18T18:35:43.743Z,11.60
2023-10-18T18:38:13.759Z,11.60
2023-10-18T18:44:27.929Z,11.70
2023-10-18T18:46:56.278Z,11.70
2023-10-18T18:49:23.573Z,11.60
2023-10-18T18:51:51.027Z,11.60
2023-10-18T18:54:21.705Z,11.70
2023-10-18T18:56:49.433Z,11.70
2023-10-18T18:59:17.358Z,11.90
2023-10-18T19:04:32.117Z,11.80
2023-10-18T19:07:00.915Z,11.90
2023-10-18T19:09:28.157Z,12.00
2023-10-18T19:11:57.133Z,11.90
2023-10-18T19:14:24.813Z,11.80
2023-10-18T19:16:54.626Z,11.70
2023-10-18T19:19:26.602Z,11.60
2023-10-18T19:24:35.923Z,11.50
2023-10-18T19:27:04.603Z,11.60
2023-10-18T19:29:36.345Z,11.50
2023-10-18T19:32:04.956Z,11.60
2023-10-18T19:37:00.685Z,11.80
2023-10-18T19:39:28.771Z,11.80
2023-10-18T19:55:16.350Z,11.90
2023-10-18T19:57:44.474Z,11.80
2023-10-18T20:00:16.191Z,11.80
2023-10-18T20:02:43.669Z,11.80
2023-10-18T20:05:14.970Z,11.90
2023-10-18T20:07:42.541Z,11.70
2023-10-18T20:10:11.025Z,11.60
2023-10-18T20:17:39.372Z,11.50
2023-10-18T20:20:09.819Z,11.50
2023-10-18T20:22:40.207Z,11.60
2023-10-18T20:25:08.809Z,11.70
2023-10-18T20:27:36.345Z,11.80
2023-10-18T20:30:06.725Z,11.80
2023-10-18T20:32:38.797Z,12.10
2023-10-18T20:38:37.186Z,12.00
2023-10-18T20:41:23.785Z,12.10
2023-10-18T20:44:03.348Z,12.00
2023-10-18T20:46:44.633Z,11.80
2023-10-18T20:49:51.984Z,11.60
2023-10-18T21:01:39.856Z,11.40
2023-10-18T21:18:03.036Z,11.30
2023-10-18T21:20:31.801Z,11.30
2023-10-18T21:23:06.148Z,11.30
2023-10-18T21:25:40.026Z,11.30
2023-10-18T21:28:12.304Z,11.30
2023-10-18T21:30:40.727Z,11.10
2023-10-18T21:33:10.677Z,10.80
2023-10-18T21:40:55.947Z,10.70
2023-10-18T21:43:26.381Z,10.60
2023-10-18T21:45:59.224Z,10.60
2023-10-18T21:48:39.069Z,10.30
2023-10-18T21:51:10.867Z,10.30
2023-10-18T21:53:38.744Z,10.30
2023-10-18T21:56:14.651Z,10.30
2023-10-18T21:58:48.621Z,10.30
2023-10-18T22:06:24.567Z,10.30
2023-10-18T22:09:00.182Z,10.50
2023-10-18T22:11:31.004Z,10.40
2023-10-18T22:14:18.145Z,10.40
2023-10-18T22:16:56.298Z,10.40
2023-10-18T22:19:32.558Z,10.40
2023-10-18T22:22:13.485Z,10.60
2023-10-18T22:27:31.447Z,10.60
2023-10-18T22:30:10.169Z,10.40
2023-10-18T22:32:46.431Z,10.50
2023-10-18T22:35:17.713Z,10.50
2023-10-18T22:37:47.326Z,10.40
2023-10-18T22:40:25.297Z,10.40
2023-10-18T22:42:53.920Z,10.50
2023-10-18T22:45:27.395Z,10.40
2023-10-18T22:47:59.554Z,10.40
2023-10-18T22:55:33.414Z,10.40
2023-10-18T22:58:03.917Z,10.60
2023-10-18T23:00:34.468Z,10.60
2023-10-18T23:03:14.070Z,10.50
2023-10-18T23:05:50.165Z,10.40
2023-10-18T23:08:26.347Z,10.40
2023-10-18T23:11:19.120Z,10.50
2023-10-18T23:13:49.576Z,10.60
2023-10-18T23:19:47.263Z,10.60
2023-10-18T23:22:27.017Z,10.70
2023-10-18T23:24:58.205Z,10.70
2023-10-18T23:27:52.466Z,10.80
2023-10-18T23:30:20.043Z,10.60
2023-10-18T23:33:01.493Z,10.60
2023-10-18T23:35:55.157Z,10.70
2023-10-18T23:38:38.121Z,10.70
2023-10-18T23:44:07.894Z,10.60
2023-10-18T23:46:59.346Z,10.60
2023-10-18T23:49:46.099Z,10.50
2023-10-18T23:52:31.020Z,10.60
2023-10-18T23:55:12.069Z,10.60
2023-10-18T23:57:48.241Z,10.60
